sensor_id;sensor_type;location;lat;lon;timestamp;P1;durP1;ratioP1;P2;durP2;ratioP2
29516;SDS011;40993;50.594;8.664;2022-09-09T00:01:20;15.35;;;12.18;;
29516;SDS011;40993;50.594;8.664;2022-09-09T00:04:00;16.05;;;11.98;;
29516;SDS011;40993;50.594;8.664;2022-09-09T00:06:31;15.15;;;11.52;;
29516;SDS011;40993;50.594;8.664;2022-09-09T00:09:02;14.32;;;11.40;;
29516;SDS011;40993;50.594;8.664;2022-09-09T00:11:39;16.65;;;11.98;;
29516;SDS011;40993;50.594;8.664;2022-09-09T00:14:12;15.95;;;12.60;;
29516;SDS011;40993;50.594;8.664;2022-09-09T00:16:43;15.23;;;13.60;;
29516;SDS011;40993;50.594;8.664;2022-09-09T00:21:55;18.13;;;12.98;;
29516;SDS011;40993;50.594;8.664;2022-09-09T00:24:31;18.48;;;13.20;;
29516;SDS011;40993;50.594;8.664;2022-09-09T00:27:04;17.63;;;12.80;;
29516;SDS011;40993;50.594;8.664;2022-09-09T00:29:36;18.38;;;12.50;;
29516;SDS011;40993;50.594;8.664;2022-09-09T00:32:13;15.45;;;13.68;;
29516;SDS011;40993;50.594;8.664;2022-09-09T00:34:46;15.88;;;13.02;;
29516;SDS011;40993;50.594;8.664;2022-09-09T00:37:15;16.43;;;12.97;;
29516;SDS011;40993;50.594;8.664;2022-09-09T00:39:46;16.52;;;12.27;;
29516;SDS011;40993;50.594;8.664;2022-09-09T00:42:20;18.40;;;12.85;;
29516;SDS011;40993;50.594;8.664;2022-09-09T00:44:56;14.95;;;12.95;;
29516;SDS011;40993;50.594;8.664;2022-09-09T00:47:36;16.38;;;13.35;;
29516;SDS011;40993;50.594;8.664;2022-09-09T00:50:19;15.70;;;13.05;;
29516;SDS011;40993;50.594;8.664;2022-09-09T00:52:58;13.80;;;12.27;;
29516;SDS011;40993;50.594;8.664;2022-09-09T00:55:33;19.00;;;13.85;;
29516;SDS011;40993;50.594;8.664;2022-09-09T00:58:06;18.50;;;13.02;;
29516;SDS011;40993;50.594;8.664;2022-09-09T01:00:38;19.35;;;13.95;;
29516;SDS011;40993;50.594;8.664;2022-09-09T01:03:12;18.85;;;13.73;;
29516;SDS011;40993;50.594;8.664;2022-09-09T01:05:57;16.95;;;13.73;;
29516;SDS011;40993;50.594;8.664;2022-09-09T01:08:52;15.18;;;13.50;;
29516;SDS011;40993;50.594;8.664;2022-09-09T01:11:32;15.50;;;13.10;;
29516;SDS011;40993;50.594;8.664;2022-09-09T01:14:10;16.52;;;12.80;;
29516;SDS011;40993;50.594;8.664;2022-09-09T01:16:41;15.10;;;13.20;;
29516;SDS011;40993;50.594;8.664;2022-09-09T01:19:09;17.02;;;13.27;;
29516;SDS011;40993;50.594;8.664;2022-09-09T01:21:48;20.10;;;13.85;;
29516;SDS011;40993;50.594;8.664;2022-09-09T01:24:24;18.33;;;12.88;;
29516;SDS011;40993;50.594;8.664;2022-09-09T01:27:04;18.52;;;13.32;;
29516;SDS011;40993;50.594;8.664;2022-09-09T01:29:33;18.77;;;12.73;;
29516;SDS011;40993;50.594;8.664;2022-09-09T01:32:02;21.63;;;14.07;;
29516;SDS011;40993;50.594;8.664;2022-09-09T01:34:50;17.92;;;13.35;;
29516;SDS011;40993;50.594;8.664;2022-09-09T01:37:22;19.38;;;13.05;;
29516;SDS011;40993;50.594;8.664;2022-09-09T01:39:53;17.40;;;12.82;;
29516;SDS011;40993;50.594;8.664;2022-09-09T01:42:24;19.35;;;13.10;;
29516;SDS011;40993;50.594;8.664;2022-09-09T01:44:52;19.63;;;13.30;;
29516;SDS011;40993;50.594;8.664;2022-09-09T01:47:20;17.98;;;13.27;;
29516;SDS011;40993;50.594;8.664;2022-09-09T01:50:15;16.42;;;13.70;;
29516;SDS011;40993;50.594;8.664;2022-09-09T01:52:44;20.92;;;13.10;;
29516;SDS011;40993;50.594;8.664;2022-09-09T01:55:15;18.52;;;13.02;;
29516;SDS011;40993;50.594;8.664;2022-09-09T01:57:45;16.20;;;12.32;;
29516;SDS011;40993;50.594;8.664;2022-09-09T02:00:18;16.30;;;12.90;;
29516;SDS011;40993;50.594;8.664;2022-09-09T02:02:54;15.15;;;12.52;;
29516;SDS011;40993;50.594;8.664;2022-09-09T02:05:35;15.63;;;12.45;;
29516;SDS011;40993;50.594;8.664;2022-09-09T02:08:11;16.35;;;12.50;;
29516;SDS011;40993;50.594;8.664;2022-09-09T02:10:53;19.02;;;13.57;;
29516;SDS011;40993;50.594;8.664;2022-09-09T02:13:45;20.13;;;13.52;;
29516;SDS011;40993;50.594;8.664;2022-09-09T02:16:18;17.95;;;13.40;;
29516;SDS011;40993;50.594;8.664;2022-09-09T02:18:51;17.48;;;12.75;;
29516;SDS011;40993;50.594;8.664;2022-09-09T02:21:32;16.13;;;13.00;;
29516;SDS011;40993;50.594;8.664;2022-09-09T02:24:02;16.92;;;13.07;;
29516;SDS011;40993;50.594;8.664;2022-09-09T02:26:37;15.30;;;12.38;;
29516;SDS011;40993;50.594;8.664;2022-09-09T02:29:11;16.10;;;12.98;;
29516;SDS011;40993;50.594;8.664;2022-09-09T02:31:41;17.23;;;13.40;;
29516;SDS011;40993;50.594;8.664;2022-09-09T02:34:14;19.35;;;13.15;;
29516;SDS011;40993;50.594;8.664;2022-09-09T02:36:45;17.52;;;12.10;;
29516;SDS011;40993;50.594;8.664;2022-09-09T02:39:14;15.02;;;12.27;;
29516;SDS011;40993;50.594;8.664;2022-09-09T02:41:42;17.27;;;13.15;;
29516;SDS011;40993;50.594;8.664;2022-09-09T02:44:15;18.85;;;13.77;;
29516;SDS011;40993;50.594;8.664;2022-09-09T02:46:57;19.67;;;13.85;;
29516;SDS011;40993;50.594;8.664;2022-09-09T02:49:35;16.30;;;12.90;;
29516;SDS011;40993;50.594;8.664;2022-09-09T02:52:13;18.27;;;12.95;;
29516;SDS011;40993;50.594;8.664;2022-09-09T02:54:46;20.35;;;13.65;;
29516;SDS011;40993;50.594;8.664;2022-09-09T02:57:16;16.98;;;13.35;;
29516;SDS011;40993;50.594;8.664;2022-09-09T02:59:49;16.77;;;13.75;;
29516;SDS011;40993;50.594;8.664;2022-09-09T03:02:19;16.48;;;13.48;;
29516;SDS011;40993;50.594;8.664;2022-09-09T03:04:53;16.58;;;13.02;;
29516;SDS011;40993;50.594;8.664;2022-09-09T03:07:21;22.55;;;13.82;;
29516;SDS011;40993;50.594;8.664;2022-09-09T03:09:51;17.30;;;13.70;;
29516;SDS011;40993;50.594;8.664;2022-09-09T03:12:23;19.63;;;13.75;;
29516;SDS011;40993;50.594;8.664;2022-09-09T03:14:52;18.45;;;13.07;;
29516;SDS011;40993;50.594;8.664;2022-09-09T03:17:23;19.77;;;12.90;;
29516;SDS011;40993;50.594;8.664;2022-09-09T03:19:53;17.42;;;12.25;;
29516;SDS011;40993;50.594;8.664;2022-09-09T03:22:24;15.93;;;11.95;;
29516;SDS011;40993;50.594;8.664;2022-09-09T03:24:59;16.60;;;11.15;;
29516;SDS011;40993;50.594;8.664;2022-09-09T03:27:32;16.70;;;11.52;;
29516;SDS011;40993;50.594;8.664;2022-09-09T03:30:01;13.68;;;11.52;;
29516;SDS011;40993;50.594;8.664;2022-09-09T03:32:32;17.48;;;11.25;;
29516;SDS011;40993;50.594;8.664;2022-09-09T03:35:05;13.65;;;10.85;;
29516;SDS011;40993;50.594;8.664;2022-09-09T03:37:35;12.55;;;10.40;;
29516;SDS011;40993;50.594;8.664;2022-09-09T03:40:05;20.33;;;11.18;;
29516;SDS011;40993;50.594;8.664;2022-09-09T03:42:39;14.07;;;10.27;;
29516;SDS011;40993;50.594;8.664;2022-09-09T03:45:09;11.20;;;9.75;;
29516;SDS011;40993;50.594;8.664;2022-09-09T03:47:39;15.20;;;10.65;;
29516;SDS011;40993;50.594;8.664;2022-09-09T03:50:10;17.13;;;9.80;;
29516;SDS011;40993;50.594;8.664;2022-09-09T03:52:44;16.30;;;10.02;;
29516;SDS011;40993;50.594;8.664;2022-09-09T03:57:46;16.15;;;9.55;;
29516;SDS011;40993;50.594;8.664;2022-09-09T04:00:16;16.20;;;9.60;;
29516;SDS011;40993;50.594;8.664;2022-09-09T04:02:50;17.83;;;9.43;;
29516;SDS011;40993;50.594;8.664;2022-09-09T04:05:22;13.32;;;8.93;;
29516;SDS011;40993;50.594;8.664;2022-09-09T04:07:50;15.02;;;9.23;;
29516;SDS011;40993;50.594;8.664;2022-09-09T04:10:18;14.68;;;8.88;;
29516;SDS011;40993;50.594;8.664;2022-09-09T04:12:53;13.48;;;9.52;;
29516;SDS011;40993;50.594;8.664;2022-09-09T04:15:23;12.85;;;9.65;;
29516;SDS011;40993;50.594;8.664;2022-09-09T04:17:50;11.90;;;9.10;;
29516;SDS011;40993;50.594;8.664;2022-09-09T04:20:18;14.90;;;9.68;;
29516;SDS011;40993;50.594;8.664;2022-09-09T04:22:48;14.73;;;10.00;;
29516;SDS011;40993;50.594;8.664;2022-09-09T04:25:16;12.13;;;9.23;;
29516;SDS011;40993;50.594;8.664;2022-09-09T04:27:43;15.77;;;8.82;;
29516;SDS011;40993;50.594;8.664;2022-09-09T04:30:12;17.25;;;7.80;;
29516;SDS011;40993;50.594;8.664;2022-09-09T04:32:42;15.50;;;8.65;;
29516;SDS011;40993;50.594;8.664;2022-09-09T04:35:10;15.52;;;8.70;;
29516;SDS011;40993;50.594;8.664;2022-09-09T04:37:39;13.52;;;8.98;;
29516;SDS011;40993;50.594;8.664;2022-09-09T04:40:07;14.88;;;8.30;;
29516;SDS011;40993;50.594;8.664;2022-09-09T04:42:37;12.75;;;8.10;;
29516;SDS011;40993;50.594;8.664;2022-09-09T04:45:13;21.48;;;8.85;;
29516;SDS011;40993;50.594;8.664;2022-09-09T04:47:42;13.52;;;8.65;;
29516;SDS011;40993;50.594;8.664;2022-09-09T04:50:10;12.52;;;8.25;;
29516;SDS011;40993;50.594;8.664;2022-09-09T04:52:49;11.95;;;8.50;;
29516;SDS011;40993;50.594;8.664;2022-09-09T04:55:31;8.80;;;7.90;;
29516;SDS011;40993;50.594;8.664;2022-09-09T04:58:10;13.30;;;8.43;;
29516;SDS011;40993;50.594;8.664;2022-09-09T05:01:07;10.95;;;8.13;;
29516;SDS011;40993;50.594;8.664;2022-09-09T05:06:34;12.98;;;8.10;;
29516;SDS011;40993;50.594;8.664;2022-09-09T05:09:03;14.98;;;7.80;;
29516;SDS011;40993;50.594;8.664;2022-09-09T05:11:39;14.35;;;8.02;;
29516;SDS011;40993;50.594;8.664;2022-09-09T05:14:40;11.90;;;7.70;;
29516;SDS011;40993;50.594;8.664;2022-09-09T05:17:09;13.68;;;7.13;;
29516;SDS011;40993;50.594;8.664;2022-09-09T05:19:44;10.98;;;7.10;;
29516;SDS011;40993;50.594;8.664;2022-09-09T05:22:18;12.07;;;6.97;;
29516;SDS011;40993;50.594;8.664;2022-09-09T05:24:52;13.30;;;7.13;;
29516;SDS011;40993;50.594;8.664;2022-09-09T05:27:21;10.63;;;6.50;;
29516;SDS011;40993;50.594;8.664;2022-09-09T05:29:49;13.25;;;6.32;;
29516;SDS011;40993;50.594;8.664;2022-09-09T05:32:31;10.35;;;6.28;;
29516;SDS011;40993;50.594;8.664;2022-09-09T05:35:13;10.27;;;6.22;;
29516;SDS011;40993;50.594;8.664;2022-09-09T05:37:58;9.18;;;5.75;;
29516;SDS011;40993;50.594;8.664;2022-09-09T05:40:35;11.13;;;5.40;;
29516;SDS011;40993;50.594;8.664;2022-09-09T05:43:07;10.20;;;6.00;;
29516;SDS011;40993;50.594;8.664;2022-09-09T05:46:10;6.78;;;4.90;;
29516;SDS011;40993;50.594;8.664;2022-09-09T05:48:44;12.52;;;5.15;;
29516;SDS011;40993;50.594;8.664;2022-09-09T05:51:25;20.63;;;5.43;;
29516;SDS011;40993;50.594;8.664;2022-09-09T05:54:05;12.70;;;4.63;;
29516;SDS011;40993;50.594;8.664;2022-09-09T05:56:37;9.27;;;4.75;;
29516;SDS011;40993;50.594;8.664;2022-09-09T05:59:09;9.05;;;4.80;;
29516;SDS011;40993;50.594;8.664;2022-09-09T06:01:45;10.68;;;4.82;;
29516;SDS011;40993;50.594;8.664;2022-09-09T06:04:22;7.38;;;4.32;;
29516;SDS011;40993;50.594;8.664;2022-09-09T06:06:54;12.85;;;3.80;;
29516;SDS011;40993;50.594;8.664;2022-09-09T06:09:33;7.55;;;3.80;;
29516;SDS011;40993;50.594;8.664;2022-09-09T06:12:06;7.60;;;3.78;;
29516;SDS011;40993;50.594;8.664;2022-09-09T06:14:35;6.32;;;3.88;;
29516;SDS011;40993;50.594;8.664;2022-09-09T06:17:17;6.90;;;3.42;;
29516;SDS011;40993;50.594;8.664;2022-09-09T06:19:58;10.15;;;3.53;;
29516;SDS011;40993;50.594;8.664;2022-09-09T06:22:33;5.65;;;3.13;;
29516;SDS011;40993;50.594;8.664;2022-09-09T06:25:00;7.38;;;3.10;;
29516;SDS011;40993;50.594;8.664;2022-09-09T06:27:34;7.70;;;3.35;;
29516;SDS011;40993;50.594;8.664;2022-09-09T06:30:06;11.23;;;3.70;;
29516;SDS011;40993;50.594;8.664;2022-09-09T06:35:09;6.35;;;2.50;;
29516;SDS011;40993;50.594;8.664;2022-09-09T06:37:44;7.43;;;2.55;;
29516;SDS011;40993;50.594;8.664;2022-09-09T06:40:21;5.18;;;2.30;;
29516;SDS011;40993;50.594;8.664;2022-09-09T06:42:59;7.72;;;2.95;;
29516;SDS011;40993;50.594;8.664;2022-09-09T06:45:56;8.00;;;2.65;;
29516;SDS011;40993;50.594;8.664;2022-09-09T06:48:31;6.68;;;2.55;;
29516;SDS011;40993;50.594;8.664;2022-09-09T06:51:01;8.05;;;2.40;;
29516;SDS011;40993;50.594;8.664;2022-09-09T06:56:32;14.82;;;2.40;;
29516;SDS011;40993;50.594;8.664;2022-09-09T06:59:06;7.70;;;2.85;;
29516;SDS011;40993;50.594;8.664;2022-09-09T07:01:51;8.77;;;2.42;;
29516;SDS011;40993;50.594;8.664;2022-09-09T07:04:24;4.32;;;1.90;;
29516;SDS011;40993;50.594;8.664;2022-09-09T07:06:57;4.28;;;2.10;;
29516;SDS011;40993;50.594;8.664;2022-09-09T07:09:27;8.60;;;2.17;;
29516;SDS011;40993;50.594;8.664;2022-09-09T07:11:56;10.82;;;2.53;;
29516;SDS011;40993;50.594;8.664;2022-09-09T07:14:28;7.55;;;2.03;;
29516;SDS011;40993;50.594;8.664;2022-09-09T07:16:59;8.73;;;2.42;;
29516;SDS011;40993;50.594;8.664;2022-09-09T07:19:39;6.82;;;2.33;;
29516;SDS011;40993;50.594;8.664;2022-09-09T07:22:07;10.90;;;1.90;;
29516;SDS011;40993;50.594;8.664;2022-09-09T07:24:53;9.07;;;2.13;;
29516;SDS011;40993;50.594;8.664;2022-09-09T07:27:24;8.93;;;2.15;;
29516;SDS011;40993;50.594;8.664;2022-09-09T07:29:52;6.35;;;2.35;;
29516;SDS011;40993;50.594;8.664;2022-09-09T07:32:20;8.25;;;2.28;;
29516;SDS011;40993;50.594;8.664;2022-09-09T07:34:48;4.63;;;1.88;;
29516;SDS011;40993;50.594;8.664;2022-09-09T07:37:17;6.43;;;2.03;;
29516;SDS011;40993;50.594;8.664;2022-09-09T07:39:48;9.77;;;1.95;;
29516;SDS011;40993;50.594;8.664;2022-09-09T07:42:22;5.40;;;2.10;;
29516;SDS011;40993;50.594;8.664;2022-09-09T07:44:52;8.35;;;2.30;;
29516;SDS011;40993;50.594;8.664;2022-09-09T07:47:21;6.60;;;1.77;;
29516;SDS011;40993;50.594;8.664;2022-09-09T07:49:58;4.88;;;1.67;;
29516;SDS011;40993;50.594;8.664;2022-09-09T07:52:29;7.97;;;2.45;;
29516;SDS011;40993;50.594;8.664;2022-09-09T07:55:04;7.35;;;1.80;;
29516;SDS011;40993;50.594;8.664;2022-09-09T07:57:38;6.90;;;1.90;;
29516;SDS011;40993;50.594;8.664;2022-09-09T08:00:07;6.65;;;1.95;;
29516;SDS011;40993;50.594;8.664;2022-09-09T08:02:44;5.95;;;1.90;;
29516;SDS011;40993;50.594;8.664;2022-09-09T08:05:29;6.70;;;2.30;;
29516;SDS011;40993;50.594;8.664;2022-09-09T08:08:01;7.57;;;1.80;;
29516;SDS011;40993;50.594;8.664;2022-09-09T08:10:30;7.07;;;1.75;;
29516;SDS011;40993;50.594;8.664;2022-09-09T08:12:59;6.95;;;2.03;;
29516;SDS011;40993;50.594;8.664;2022-09-09T08:15:47;16.10;;;2.33;;
29516;SDS011;40993;50.594;8.664;2022-09-09T08:18:17;7.05;;;1.90;;
29516;SDS011;40993;50.594;8.664;2022-09-09T08:20:46;3.63;;;1.83;;
29516;SDS011;40993;50.594;8.664;2022-09-09T08:23:14;7.78;;;1.80;;
29516;SDS011;40993;50.594;8.664;2022-09-09T08:25:41;10.57;;;2.30;;
29516;SDS011;40993;50.594;8.664;2022-09-09T08:28:12;5.88;;;1.98;;
29516;SDS011;40993;50.594;8.664;2022-09-09T08:30:43;5.65;;;1.90;;
29516;SDS011;40993;50.594;8.664;2022-09-09T08:33:26;6.38;;;1.90;;
29516;SDS011;40993;50.594;8.664;2022-09-09T08:36:00;6.10;;;2.20;;
29516;SDS011;40993;50.594;8.664;2022-09-09T08:38:31;5.70;;;2.05;;
29516;SDS011;40993;50.594;8.664;2022-09-09T08:41:52;5.53;;;1.95;;
29516;SDS011;40993;50.594;8.664;2022-09-09T08:45:28;13.27;;;2.38;;
29516;SDS011;40993;50.594;8.664;2022-09-09T08:48:14;6.97;;;2.30;;
29516;SDS011;40993;50.594;8.664;2022-09-09T08:51:11;8.20;;;2.30;;
29516;SDS011;40993;50.594;8.664;2022-09-09T08:54:19;6.15;;;2.13;;
29516;SDS011;40993;50.594;8.664;2022-09-09T09:07:19;5.00;;;2.10;;
29516;SDS011;40993;50.594;8.664;2022-09-09T09:10:10;4.63;;;1.70;;
29516;SDS011;40993;50.594;8.664;2022-09-09T09:13:07;7.57;;;2.25;;
29516;SDS011;40993;50.594;8.664;2022-09-09T09:15:42;7.28;;;1.80;;
29516;SDS011;40993;50.594;8.664;2022-09-09T09:18:12;4.38;;;1.77;;
29516;SDS011;40993;50.594;8.664;2022-09-09T09:20:46;9.57;;;2.00;;
29516;SDS011;40993;50.594;8.664;2022-09-09T09:23:21;7.80;;;1.83;;
29516;SDS011;40993;50.594;8.664;2022-09-09T09:25:56;8.40;;;2.08;;
29516;SDS011;40993;50.594;8.664;2022-09-09T09:28:42;6.75;;;2.00;;
29516;SDS011;40993;50.594;8.664;2022-09-09T09:31:28;7.45;;;1.63;;
29516;SDS011;40993;50.594;8.664;2022-09-09T09:33:58;5.45;;;2.17;;
29516;SDS011;40993;50.594;8.664;2022-09-09T09:36:35;5.72;;;1.70;;
29516;SDS011;40993;50.594;8.664;2022-09-09T09:39:23;8.63;;;1.40;;
29516;SDS011;40993;50.594;8.664;2022-09-09T09:42:16;9.88;;;1.70;;
29516;SDS011;40993;50.594;8.664;2022-09-09T09:44:50;6.25;;;1.80;;
29516;SDS011;40993;50.594;8.664;2022-09-09T09:47:21;3.35;;;1.48;;
29516;SDS011;40993;50.594;8.664;2022-09-09T09:50:15;15.77;;;1.98;;
29516;SDS011;40993;50.594;8.664;2022-09-09T09:52:54;4.25;;;1.45;;
29516;SDS011;40993;50.594;8.664;2022-09-09T09:55:30;3.95;;;1.50;;
29516;SDS011;40993;50.594;8.664;2022-09-09T09:58:13;4.32;;;1.65;;
29516;SDS011;40993;50.594;8.664;2022-09-09T10:00:47;5.15;;;1.50;;
29516;SDS011;40993;50.594;8.664;2022-09-09T10:03:20;5.97;;;1.80;;
29516;SDS011;40993;50.594;8.664;2022-09-09T10:05:52;6.45;;;1.63;;
29516;SDS011;40993;50.594;8.664;2022-09-09T10:08:22;5.70;;;1.85;;
29516;SDS011;40993;50.594;8.664;2022-09-09T10:10:56;5.22;;;1.50;;
29516;SDS011;40993;50.594;8.664;2022-09-09T10:13:30;4.85;;;1.30;;
29516;SDS011;40993;50.594;8.664;2022-09-09T10:16:27;4.50;;;1.73;;
29516;SDS011;40993;50.594;8.664;2022-09-09T10:19:13;5.93;;;1.58;;
29516;SDS011;40993;50.594;8.664;2022-09-09T10:21:48;11.38;;;1.83;;
29516;SDS011;40993;50.594;8.664;2022-09-09T10:24:33;6.28;;;1.55;;
29516;SDS011;40993;50.594;8.664;2022-09-09T10:27:30;5.82;;;1.90;;
29516;SDS011;40993;50.594;8.664;2022-09-09T10:30:16;5.70;;;1.50;;
29516;SDS011;40993;50.594;8.664;2022-09-09T10:32:46;4.10;;;1.48;;
29516;SDS011;40993;50.594;8.664;2022-09-09T10:35:24;4.03;;;1.70;;
29516;SDS011;40993;50.594;8.664;2022-09-09T10:38:00;3.95;;;1.27;;
29516;SDS011;40993;50.594;8.664;2022-09-09T10:40:40;5.40;;;1.80;;
29516;SDS011;40993;50.594;8.664;2022-09-09T10:43:13;10.43;;;1.65;;
29516;SDS011;40993;50.594;8.664;2022-09-09T10:45:58;6.10;;;1.70;;
29516;SDS011;40993;50.594;8.664;2022-09-09T10:48:31;8.50;;;1.75;;
29516;SDS011;40993;50.594;8.664;2022-09-09T10:51:13;5.90;;;1.60;;
29516;SDS011;40993;50.594;8.664;2022-09-09T10:53:51;4.75;;;1.45;;
29516;SDS011;40993;50.594;8.664;2022-09-09T10:56:23;8.30;;;1.58;;
29516;SDS011;40993;50.594;8.664;2022-09-09T10:58:52;9.45;;;1.50;;
29516;SDS011;40993;50.594;8.664;2022-09-09T11:01:22;7.15;;;1.73;;
29516;SDS011;40993;50.594;8.664;2022-09-09T11:03:54;3.92;;;1.40;;
29516;SDS011;40993;50.594;8.664;2022-09-09T11:06:25;6.15;;;1.85;;
29516;SDS011;40993;50.594;8.664;2022-09-09T11:08:59;12.23;;;2.03;;
29516;SDS011;40993;50.594;8.664;2022-09-09T11:11:30;3.67;;;1.30;;
29516;SDS011;40993;50.594;8.664;2022-09-09T11:14:01;3.63;;;1.60;;
29516;SDS011;40993;50.594;8.664;2022-09-09T11:16:33;5.22;;;1.60;;
29516;SDS011;40993;50.594;8.664;2022-09-09T11:19:05;6.90;;;1.70;;
29516;SDS011;40993;50.594;8.664;2022-09-09T11:21:40;5.25;;;1.50;;
29516;SDS011;40993;50.594;8.664;2022-09-09T11:24:10;4.03;;;1.67;;
29516;SDS011;40993;50.594;8.664;2022-09-09T11:26:44;4.47;;;1.40;;
29516;SDS011;40993;50.594;8.664;2022-09-09T11:29:31;8.63;;;1.95;;
29516;SDS011;40993;50.594;8.664;2022-09-09T11:32:20;8.00;;;2.00;;
29516;SDS011;40993;50.594;8.664;2022-09-09T11:34:56;5.60;;;1.58;;
29516;SDS011;40993;50.594;8.664;2022-09-09T11:37:42;7.13;;;1.60;;
29516;SDS011;40993;50.594;8.664;2022-09-09T11:40:34;4.50;;;1.30;;
29516;SDS011;40993;50.594;8.664;2022-09-09T11:43:03;2.88;;;1.30;;
29516;SDS011;40993;50.594;8.664;2022-09-09T11:45:32;7.03;;;1.73;;
29516;SDS011;40993;50.594;8.664;2022-09-09T11:48:02;5.15;;;1.27;;
29516;SDS011;40993;50.594;8.664;2022-09-09T11:50:35;5.25;;;1.40;;
29516;SDS011;40993;50.594;8.664;2022-09-09T11:53:18;6.65;;;1.60;;
29516;SDS011;40993;50.594;8.664;2022-09-09T11:56:00;8.02;;;1.42;;
29516;SDS011;40993;50.594;8.664;2022-09-09T11:58:38;5.78;;;1.50;;
29516;SDS011;40993;50.594;8.664;2022-09-09T12:01:14;3.90;;;1.05;;
29516;SDS011;40993;50.594;8.664;2022-09-09T12:03:52;4.90;;;1.25;;
29516;SDS011;40993;50.594;8.664;2022-09-09T12:06:29;4.80;;;1.30;;
29516;SDS011;40993;50.594;8.664;2022-09-09T12:09:04;3.58;;;1.27;;
29516;SDS011;40993;50.594;8.664;2022-09-09T12:11:33;3.38;;;1.30;;
29516;SDS011;40993;50.594;8.664;2022-09-09T12:14:02;6.13;;;1.63;;
29516;SDS011;40993;50.594;8.664;2022-09-09T12:16:31;8.68;;;1.27;;
29516;SDS011;40993;50.594;8.664;2022-09-09T12:19:05;7.03;;;1.20;;
29516;SDS011;40993;50.594;8.664;2022-09-09T12:21:36;2.30;;;0.90;;
29516;SDS011;40993;50.594;8.664;2022-09-09T12:24:07;7.20;;;1.30;;
29516;SDS011;40993;50.594;8.664;2022-09-09T12:26:37;3.88;;;1.05;;
29516;SDS011;40993;50.594;8.664;2022-09-09T12:29:11;4.72;;;1.23;;
29516;SDS011;40993;50.594;8.664;2022-09-09T12:31:41;5.45;;;1.50;;
29516;SDS011;40993;50.594;8.664;2022-09-09T12:34:14;7.10;;;1.30;;
29516;SDS011;40993;50.594;8.664;2022-09-09T12:36:43;8.35;;;1.40;;
29516;SDS011;40993;50.594;8.664;2022-09-09T12:39:19;4.85;;;1.27;;
29516;SDS011;40993;50.594;8.664;2022-09-09T12:41:50;2.25;;;1.00;;
29516;SDS011;40993;50.594;8.664;2022-09-09T12:44:24;5.80;;;1.63;;
29516;SDS011;40993;50.594;8.664;2022-09-09T12:46:54;4.65;;;1.40;;
29516;SDS011;40993;50.594;8.664;2022-09-09T12:49:25;5.18;;;1.02;;
29516;SDS011;40993;50.594;8.664;2022-09-09T12:51:54;4.38;;;1.50;;
29516;SDS011;40993;50.594;8.664;2022-09-09T12:54:23;5.90;;;1.30;;
29516;SDS011;40993;50.594;8.664;2022-09-09T12:56:50;3.30;;;1.35;;
29516;SDS011;40993;50.594;8.664;2022-09-09T12:59:21;8.68;;;1.35;;
29516;SDS011;40993;50.594;8.664;2022-09-09T13:01:55;8.68;;;1.58;;
29516;SDS011;40993;50.594;8.664;2022-09-09T13:04:23;4.78;;;1.40;;
29516;SDS011;40993;50.594;8.664;2022-09-09T13:06:51;5.32;;;1.40;;
29516;SDS011;40993;50.594;8.664;2022-09-09T13:09:19;4.55;;;1.10;;
29516;SDS011;40993;50.594;8.664;2022-09-09T13:11:48;4.00;;;1.30;;
29516;SDS011;40993;50.594;8.664;2022-09-09T13:14:18;5.18;;;1.58;;
29516;SDS011;40993;50.594;8.664;2022-09-09T13:16:55;25.23;;;2.08;;
29516;SDS011;40993;50.594;8.664;2022-09-09T13:19:24;5.28;;;1.20;;
29516;SDS011;40993;50.594;8.664;2022-09-09T13:21:53;4.03;;;1.40;;
29516;SDS011;40993;50.594;8.664;2022-09-09T13:24:26;3.28;;;1.10;;
29516;SDS011;40993;50.594;8.664;2022-09-09T13:26:56;4.70;;;1.30;;
29516;SDS011;40993;50.594;8.664;2022-09-09T13:29:24;6.65;;;1.10;;
29516;SDS011;40993;50.594;8.664;2022-09-09T13:31:51;4.72;;;1.05;;
29516;SDS011;40993;50.594;8.664;2022-09-09T13:34:27;8.35;;;1.35;;
29516;SDS011;40993;50.594;8.664;2022-09-09T13:36:58;5.25;;;1.40;;
29516;SDS011;40993;50.594;8.664;2022-09-09T13:39:27;5.35;;;1.50;;
29516;SDS011;40993;50.594;8.664;2022-09-09T13:41:55;5.22;;;1.33;;
29516;SDS011;40993;50.594;8.664;2022-09-09T13:44:23;5.55;;;1.60;;
29516;SDS011;40993;50.594;8.664;2022-09-09T13:46:59;6.20;;;1.35;;
29516;SDS011;40993;50.594;8.664;2022-09-09T13:49:34;4.30;;;1.42;;
29516;SDS011;40993;50.594;8.664;2022-09-09T13:52:03;5.43;;;1.20;;
29516;SDS011;40993;50.594;8.664;2022-09-09T13:54:32;4.85;;;1.58;;
29516;SDS011;40993;50.594;8.664;2022-09-09T13:56:59;6.38;;;1.60;;
29516;SDS011;40993;50.594;8.664;2022-09-09T13:59:27;6.43;;;1.50;;
29516;SDS011;40993;50.594;8.664;2022-09-09T14:02:14;8.48;;;1.65;;
29516;SDS011;40993;50.594;8.664;2022-09-09T14:04:44;6.32;;;1.67;;
29516;SDS011;40993;50.594;8.664;2022-09-09T14:07:12;6.53;;;1.48;;
29516;SDS011;40993;50.594;8.664;2022-09-09T14:09:40;4.65;;;1.30;;
29516;SDS011;40993;50.594;8.664;2022-09-09T14:12:08;9.82;;;2.25;;
29516;SDS011;40993;50.594;8.664;2022-09-09T14:14:36;10.85;;;1.92;;
29516;SDS011;40993;50.594;8.664;2022-09-09T14:17:04;11.00;;;1.77;;
29516;SDS011;40993;50.594;8.664;2022-09-09T14:19:33;5.10;;;1.63;;
29516;SDS011;40993;50.594;8.664;2022-09-09T14:22:02;3.80;;;1.35;;
29516;SDS011;40993;50.594;8.664;2022-09-09T14:24:29;4.63;;;1.40;;
29516;SDS011;40993;50.594;8.664;2022-09-09T14:26:57;12.75;;;1.65;;
29516;SDS011;40993;50.594;8.664;2022-09-09T14:29:24;4.15;;;1.40;;
29516;SDS011;40993;50.594;8.664;2022-09-09T14:31:52;10.63;;;1.60;;
29516;SDS011;40993;50.594;8.664;2022-09-09T14:34:20;6.97;;;1.50;;
29516;SDS011;40993;50.594;8.664;2022-09-09T14:36:47;6.63;;;1.70;;
29516;SDS011;40993;50.594;8.664;2022-09-09T14:39:17;4.55;;;1.40;;
29516;SDS011;40993;50.594;8.664;2022-09-09T14:41:44;5.53;;;1.30;;
29516;SDS011;40993;50.594;8.664;2022-09-09T14:44:12;5.75;;;1.55;;
29516;SDS011;40993;50.594;8.664;2022-09-09T14:46:39;5.63;;;1.50;;
29516;SDS011;40993;50.594;8.664;2022-09-09T14:49:08;6.53;;;1.50;;
29516;SDS011;40993;50.594;8.664;2022-09-09T14:51:36;8.02;;;1.73;;
29516;SDS011;40993;50.594;8.664;2022-09-09T14:54:04;7.45;;;1.52;;
29516;SDS011;40993;50.594;8.664;2022-09-09T14:56:33;4.90;;;1.63;;
29516;SDS011;40993;50.594;8.664;2022-09-09T14:59:01;6.38;;;1.60;;
29516;SDS011;40993;50.594;8.664;2022-09-09T15:01:29;7.32;;;1.48;;
29516;SDS011;40993;50.594;8.664;2022-09-09T15:03:58;5.68;;;1.55;;
29516;SDS011;40993;50.594;8.664;2022-09-09T15:06:27;6.47;;;1.50;;
29516;SDS011;40993;50.594;8.664;2022-09-09T15:08:56;7.70;;;1.40;;
29516;SDS011;40993;50.594;8.664;2022-09-09T15:11:25;5.63;;;1.52;;
29516;SDS011;40993;50.594;8.664;2022-09-09T15:13:55;4.68;;;1.52;;
29516;SDS011;40993;50.594;8.664;2022-09-09T15:16:24;4.95;;;1.60;;
29516;SDS011;40993;50.594;8.664;2022-09-09T15:18:53;4.72;;;1.50;;
29516;SDS011;40993;50.594;8.664;2022-09-09T15:21:22;4.07;;;1.42;;
29516;SDS011;40993;50.594;8.664;2022-09-09T15:23:51;5.18;;;1.20;;
29516;SDS011;40993;50.594;8.664;2022-09-09T15:26:19;7.38;;;2.00;;
29516;SDS011;40993;50.594;8.664;2022-09-09T15:28:47;5.63;;;1.52;;
29516;SDS011;40993;50.594;8.664;2022-09-09T15:31:17;4.05;;;1.40;;
29516;SDS011;40993;50.594;8.664;2022-09-09T15:33:49;6.50;;;1.67;;
29516;SDS011;40993;50.594;8.664;2022-09-09T15:36:17;4.45;;;1.27;;
29516;SDS011;40993;50.594;8.664;2022-09-09T15:38:46;5.70;;;1.45;;
29516;SDS011;40993;50.594;8.664;2022-09-09T15:41:14;6.03;;;1.30;;
29516;SDS011;40993;50.594;8.664;2022-09-09T15:43:43;8.63;;;1.17;;